This is the latest recevied weather packets stored in our database for station/object AE2A-13. If no packets are shown the sender has not sent any weather packets the latest 10 day(s).
| Time | Temp. | Humidity | Pressure | Rain* | Wind** | Luminosity | Snow |
|---|---|---|---|---|---|---|---|
| 1777414203 | 26.67° C | 73% | 1019.3 hPa | 0 mm | - | - | - |
| 1777412404 | 27.22° C | 72% | 1019.4 hPa | 0 mm | - | - | - |
| 1777408504 | 28.33° C | 68% | 1019.8 hPa | 0 mm | - | - | - |
| 1777407905 | 28.33° C | 70% | 1019.9 hPa | 0 mm | - | - | - |
| 1777407004 | 28.33° C | 67% | 1020.1 hPa | 0 mm | - | - | - |
| 1777406104 | 28.89° C | 67% | 1020.2 hPa | 0 mm | - | - | - |
| 1777404604 | 28.33° C | 70% | 1020.6 hPa | 0 mm | - | - | - |
| 1777404304 | 28.89° C | 69% | 1020.6 hPa | 0 mm | - | - | - |
| 1777403103 | 28.89° C | 68% | 1020.5 hPa | 0 mm | - | - | - |
| 1777401004 | 30° C | 65% | 1020.3 hPa | 0 mm | - | - | - |
| 1777400404 | 30° C | 65% | 1020.3 hPa | 0 mm | - | - | - |
| 1777399804 | 29.44° C | 64% | 1020.2 hPa | 0 mm | - | - | - |
| 1777398605 | 29.44° C | 64% | 1020.3 hPa | 0 mm | - | - | - |
| 1777396504 | 28.33° C | 69% | 1020.6 hPa | 0 mm | - | - | - |
| 1777396204 | 28.89° C | 69% | 1020.7 hPa | 0 mm | - | - | - |
| 1777395904 | 28.33° C | 69% | 1020.6 hPa | 0 mm | - | - | - |
| 1777395004 | 28.33° C | 69% | 1020.7 hPa | 0 mm | - | - | - |
| 1777394704 | 28.89° C | 70% | 1020.8 hPa | 0 mm | - | - | - |
| 1777394404 | 28.89° C | 67% | 1020.8 hPa | 0 mm | - | - | - |
| 1777394104 | 29.44° C | 69% | 1021 hPa | 0 mm | - | - | - |
| 1777392003 | 27.78° C | 74% | 1021.3 hPa | 0 mm | - | - | - |
| 1777391703 | 27.78° C | 72% | 1021.3 hPa | 0 mm | - | - | - |
| 1777390504 | 28.33° C | 71% | 1021.3 hPa | 0 mm | - | - | - |
| 1777388704 | 27.22° C | 76% | 1021.1 hPa | 0 mm | - | - | - |
| 1777388404 | 27.22° C | 77% | 1021.1 hPa | 0 mm | - | - | - |
* Rain latest hour (hover to see other rain measurements)
** Current wind speed in m/s (hover to see current wind gust speed)